Walls, Mississippi
Current Conditions -  °F | °C
As of 11:54 PM on Saturday 25 Oct 2014 (Local Time) from KMEM Reporting Station
Clear Clear  
Wind Chill: 20°   Ceiling: Unl
Heat Index: 20°   Visibility: 10mi
Dew Point: 17°   Wind: 3mph
Humidity: 84%   Direction: 220°SW
Pressure: 30.02"   Gusts: NA
Location:  34.94°N, 90.09°W
Report Text: KMEM 260454Z 22003KT 10SM CLR 20/17 A3002 RMK AO2 SLP164 T02000172 $
Loading
Personal Weather Stations






























Interactive Weather Map
Tropical Storm Tracking
New forecast layout! Learn more

10-Day Weather Forecast

Advertisements
Track Severe Weather on mobile